sensor_id;sensor_type;location;lat;lon;timestamp;temperature;humidity
77039;DHT22;65970;50.476;4.840;2024-03-23T00:52:32;12.50;39.30
77039;DHT22;65970;50.476;4.840;2024-03-23T00:57:33;12.40;37.60
77039;DHT22;65970;50.476;4.840;2024-03-23T01:02:33;12.30;37.50
77039;DHT22;65970;50.476;4.840;2024-03-23T01:07:34;12.30;36.50
77039;DHT22;65970;50.476;4.840;2024-03-23T01:12:34;12.10;36.10
77039;DHT22;65970;50.476;4.840;2024-03-23T01:17:35;12.10;36.10
77039;DHT22;65970;50.476;4.840;2024-03-23T01:22:36;12.00;36.10
77039;DHT22;65970;50.476;4.840;2024-03-23T01:27:36;11.90;36.40
77039;DHT22;65970;50.476;4.840;2024-03-23T01:32:37;11.90;36.50
77039;DHT22;65970;50.476;4.840;2024-03-23T01:37:37;11.80;36.20
77039;DHT22;65970;50.476;4.840;2024-03-23T01:42:38;11.80;36.50
77039;DHT22;65970;50.476;4.840;2024-03-23T01:47:38;11.70;36.80
77039;DHT22;65970;50.476;4.840;2024-03-23T01:52:39;11.70;37.00
77039;DHT22;65970;50.476;4.840;2024-03-23T01:57:39;11.60;36.90
77039;DHT22;65970;50.476;4.840;2024-03-23T02:02:44;11.60;36.90
77039;DHT22;65970;50.476;4.840;2024-03-23T02:07:45;11.60;37.00
77039;DHT22;65970;50.476;4.840;2024-03-23T02:12:45;11.50;37.40
77039;DHT22;65970;50.476;4.840;2024-03-23T02:17:46;11.50;37.30
77039;DHT22;65970;50.476;4.840;2024-03-23T02:22:53;11.40;37.50
77039;DHT22;65970;50.476;4.840;2024-03-23T02:27:53;11.40;37.80
77039;DHT22;65970;50.476;4.840;2024-03-23T02:32:54;11.40;37.60
77039;DHT22;65970;50.476;4.840;2024-03-23T02:37:54;11.30;37.60
77039;DHT22;65970;50.476;4.840;2024-03-23T02:42:55;11.30;37.40
77039;DHT22;65970;50.476;4.840;2024-03-23T02:47:55;11.20;36.90
77039;DHT22;65970;50.476;4.840;2024-03-23T02:52:56;11.20;37.30
77039;DHT22;65970;50.476;4.840;2024-03-23T02:57:57;11.20;37.60
77039;DHT22;65970;50.476;4.840;2024-03-23T03:02:57;11.10;37.70
77039;DHT22;65970;50.476;4.840;2024-03-23T03:07:58;11.10;37.80
77039;DHT22;65970;50.476;4.840;2024-03-23T03:12:58;11.10;37.80
77039;DHT22;65970;50.476;4.840;2024-03-23T03:17:59;11.10;38.00
77039;DHT22;65970;50.476;4.840;2024-03-23T03:23:00;11.10;38.00
77039;DHT22;65970;50.476;4.840;2024-03-23T03:28:01;11.00;37.90
77039;DHT22;65970;50.476;4.840;2024-03-23T03:33:02;11.00;37.90
77039;DHT22;65970;50.476;4.840;2024-03-23T03:38:02;11.00;38.00
77039;DHT22;65970;50.476;4.840;2024-03-23T03:43:03;10.90;37.80
77039;DHT22;65970;50.476;4.840;2024-03-23T03:48:04;10.90;38.20
77039;DHT22;65970;50.476;4.840;2024-03-23T03:53:04;10.90;38.30
77039;DHT22;65970;50.476;4.840;2024-03-23T03:58:05;10.90;38.30
77039;DHT22;65970;50.476;4.840;2024-03-23T04:03:06;10.80;38.50
77039;DHT22;65970;50.476;4.840;2024-03-23T04:08:07;10.80;38.50
77039;DHT22;65970;50.476;4.840;2024-03-23T04:13:08;10.80;38.50
77039;DHT22;65970;50.476;4.840;2024-03-23T04:18:08;10.80;38.60
77039;DHT22;65970;50.476;4.840;2024-03-23T04:23:09;10.80;38.70
77039;DHT22;65970;50.476;4.840;2024-03-23T04:28:09;10.80;38.80
77039;DHT22;65970;50.476;4.840;2024-03-23T04:33:10;10.70;38.90
77039;DHT22;65970;50.476;4.840;2024-03-23T04:38:10;10.70;39.00
77039;DHT22;65970;50.476;4.840;2024-03-23T04:43:11;10.70;39.00
77039;DHT22;65970;50.476;4.840;2024-03-23T04:48:11;10.70;39.00
77039;DHT22;65970;50.476;4.840;2024-03-23T04:53:12;10.70;39.10
77039;DHT22;65970;50.476;4.840;2024-03-23T04:58:12;10.70;39.10
77039;DHT22;65970;50.476;4.840;2024-03-23T05:03:13;10.70;39.20
77039;DHT22;65970;50.476;4.840;2024-03-23T05:08:14;10.60;39.00
77039;DHT22;65970;50.476;4.840;2024-03-23T05:13:15;10.60;39.00
77039;DHT22;65970;50.476;4.840;2024-03-23T05:18:15;10.50;39.00
77039;DHT22;65970;50.476;4.840;2024-03-23T05:23:16;10.60;38.90
77039;DHT22;65970;50.476;4.840;2024-03-23T05:28:16;10.50;39.00
77039;DHT22;65970;50.476;4.840;2024-03-23T05:33:21;10.50;39.00
77039;DHT22;65970;50.476;4.840;2024-03-23T05:38:22;10.50;39.00
77039;DHT22;65970;50.476;4.840;2024-03-23T05:43:23;10.50;38.80
77039;DHT22;65970;50.476;4.840;2024-03-23T05:48:24;10.50;38.80
77039;DHT22;65970;50.476;4.840;2024-03-23T05:53:25;10.50;38.60
77039;DHT22;65970;50.476;4.840;2024-03-23T05:58:25;10.40;38.60
77039;DHT22;65970;50.476;4.840;2024-03-23T06:03:26;10.40;38.80
77039;DHT22;65970;50.476;4.840;2024-03-23T06:08:27;10.40;38.70
77039;DHT22;65970;50.476;4.840;2024-03-23T06:13:27;10.30;38.70
77039;DHT22;65970;50.476;4.840;2024-03-23T06:18:28;10.30;38.60
77039;DHT22;65970;50.476;4.840;2024-03-23T06:23:28;10.30;38.50
77039;DHT22;65970;50.476;4.840;2024-03-23T06:28:29;10.30;38.40
77039;DHT22;65970;50.476;4.840;2024-03-23T06:33:29;10.30;38.20
77039;DHT22;65970;50.476;4.840;2024-03-23T06:38:30;10.30;38.20
77039;DHT22;65970;50.476;4.840;2024-03-23T06:43:31;10.20;37.60
77039;DHT22;65970;50.476;4.840;2024-03-23T06:48:31;10.20;37.70
77039;DHT22;65970;50.476;4.840;2024-03-23T06:53:32;10.20;37.60
77039;DHT22;65970;50.476;4.840;2024-03-23T06:58:32;10.10;37.80
77039;DHT22;65970;50.476;4.840;2024-03-23T07:03:33;10.10;37.60
77039;DHT22;65970;50.476;4.840;2024-03-23T07:08:33;10.10;37.80
77039;DHT22;65970;50.476;4.840;2024-03-23T07:13:34;10.10;37.80
77039;DHT22;65970;50.476;4.840;2024-03-23T07:18:35;10.10;38.00
77039;DHT22;65970;50.476;4.840;2024-03-23T07:23:35;10.00;38.00
77039;DHT22;65970;50.476;4.840;2024-03-23T07:28:36;10.00;38.20
77039;DHT22;65970;50.476;4.840;2024-03-23T07:33:42;10.00;38.20
77039;DHT22;65970;50.476;4.840;2024-03-23T07:38:43;10.00;38.20
77039;DHT22;65970;50.476;4.840;2024-03-23T07:43:45;10.00;38.00
77039;DHT22;65970;50.476;4.840;2024-03-23T07:48:45;10.00;38.00
77039;DHT22;65970;50.476;4.840;2024-03-23T07:53:46;10.00;37.80
77039;DHT22;65970;50.476;4.840;2024-03-23T07:58:47;10.00;38.00
77039;DHT22;65970;50.476;4.840;2024-03-23T08:03:49;10.00;38.00
77039;DHT22;65970;50.476;4.840;2024-03-23T08:08:55;9.90;37.90
77039;DHT22;65970;50.476;4.840;2024-03-23T08:13:56;10.00;38.00
77039;DHT22;65970;50.476;4.840;2024-03-23T08:18:57;9.90;38.20
77039;DHT22;65970;50.476;4.840;2024-03-23T08:23:57;9.90;38.00
77039;DHT22;65970;50.476;4.840;2024-03-23T08:28:58;9.90;38.20
77039;DHT22;65970;50.476;4.840;2024-03-23T08:33:58;9.90;38.00
77039;DHT22;65970;50.476;4.840;2024-03-23T08:38:59;9.90;38.10
77039;DHT22;65970;50.476;4.840;2024-03-23T08:44:00;9.90;38.00
77039;DHT22;65970;50.476;4.840;2024-03-23T08:49:00;9.90;37.90
77039;DHT22;65970;50.476;4.840;2024-03-23T08:54:01;9.90;37.80
77039;DHT22;65970;50.476;4.840;2024-03-23T08:59:02;9.90;37.90
77039;DHT22;65970;50.476;4.840;2024-03-23T09:04:02;9.90;38.00
77039;DHT22;65970;50.476;4.840;2024-03-23T09:09:03;9.90;38.00
77039;DHT22;65970;50.476;4.840;2024-03-23T09:14:04;9.90;37.90
77039;DHT22;65970;50.476;4.840;2024-03-23T09:19:04;10.00;37.80
77039;DHT22;65970;50.476;4.840;2024-03-23T09:24:05;10.00;37.60
77039;DHT22;65970;50.476;4.840;2024-03-23T09:29:05;10.00;37.40
77039;DHT22;65970;50.476;4.840;2024-03-23T09:34:06;10.00;37.10
77039;DHT22;65970;50.476;4.840;2024-03-23T09:39:07;10.00;37.40
77039;DHT22;65970;50.476;4.840;2024-03-23T09:44:08;10.00;37.30
77039;DHT22;65970;50.476;4.840;2024-03-23T09:49:08;10.00;37.30
77039;DHT22;65970;50.476;4.840;2024-03-23T09:54:09;10.00;37.40
77039;DHT22;65970;50.476;4.840;2024-03-23T09:59:12;10.00;36.90
77039;DHT22;65970;50.476;4.840;2024-03-23T10:04:41;10.10;36.60
77039;DHT22;65970;50.476;4.840;2024-03-23T10:09:42;10.10;37.10
77039;DHT22;65970;50.476;4.840;2024-03-23T10:14:43;10.10;36.60
77039;DHT22;65970;50.476;4.840;2024-03-23T10:19:49;10.10;36.70
77039;DHT22;65970;50.476;4.840;2024-03-23T10:24:49;10.10;36.90
77039;DHT22;65970;50.476;4.840;2024-03-23T10:29:51;10.10;36.60
77039;DHT22;65970;50.476;4.840;2024-03-23T10:34:51;10.10;37.00
77039;DHT22;65970;50.476;4.840;2024-03-23T10:39:52;10.20;37.30
77039;DHT22;65970;50.476;4.840;2024-03-23T10:44:53;10.20;37.30
77039;DHT22;65970;50.476;4.840;2024-03-23T10:49:53;10.20;37.30
77039;DHT22;65970;50.476;4.840;2024-03-23T10:54:55;10.30;37.30
77039;DHT22;65970;50.476;4.840;2024-03-23T10:59:57;10.30;37.20
77039;DHT22;65970;50.476;4.840;2024-03-23T11:04:58;10.40;36.70
77039;DHT22;65970;50.476;4.840;2024-03-23T11:09:59;10.50;37.00
77039;DHT22;65970;50.476;4.840;2024-03-23T11:15:12;10.50;36.70
77039;DHT22;65970;50.476;4.840;2024-03-23T11:20:13;10.60;36.50
77039;DHT22;65970;50.476;4.840;2024-03-23T11:25:23;10.60;36.70
77039;DHT22;65970;50.476;4.840;2024-03-23T11:30:26;10.70;36.50
77039;DHT22;65970;50.476;4.840;2024-03-23T11:40:32;10.70;36.00
77039;DHT22;65970;50.476;4.840;2024-03-23T11:50:47;10.70;35.60
77039;DHT22;65970;50.476;4.840;2024-03-23T11:55:55;10.70;35.60
77039;DHT22;65970;50.476;4.840;2024-03-23T12:00:57;10.70;36.30
77039;DHT22;65970;50.476;4.840;2024-03-23T12:05:59;10.70;36.30
77039;DHT22;65970;50.476;4.840;2024-03-23T12:11:14;10.70;36.40
77039;DHT22;65970;50.476;4.840;2024-03-23T12:16:19;10.70;35.80
77039;DHT22;65970;50.476;4.840;2024-03-23T12:21:20;10.80;36.20
77039;DHT22;65970;50.476;4.840;2024-03-23T12:26:21;10.80;35.80
77039;DHT22;65970;50.476;4.840;2024-03-23T12:31:21;10.80;36.30
77039;DHT22;65970;50.476;4.840;2024-03-23T12:36:22;10.90;36.30
77039;DHT22;65970;50.476;4.840;2024-03-23T12:41:22;10.90;36.30
77039;DHT22;65970;50.476;4.840;2024-03-23T12:46:23;11.00;35.80
77039;DHT22;65970;50.476;4.840;2024-03-23T12:51:23;11.10;35.30
77039;DHT22;65970;50.476;4.840;2024-03-23T12:56:24;11.10;35.30
77039;DHT22;65970;50.476;4.840;2024-03-23T13:01:24;11.10;34.40
77039;DHT22;65970;50.476;4.840;2024-03-23T13:06:25;11.20;35.70
77039;DHT22;65970;50.476;4.840;2024-03-23T13:11:26;11.10;35.60
77039;DHT22;65970;50.476;4.840;2024-03-23T13:16:26;11.10;35.00
77039;DHT22;65970;50.476;4.840;2024-03-23T13:21:27;11.10;35.30
77039;DHT22;65970;50.476;4.840;2024-03-23T13:26:27;11.10;35.30
77039;DHT22;65970;50.476;4.840;2024-03-23T13:31:28;11.10;36.00
77039;DHT22;65970;50.476;4.840;2024-03-23T13:36:28;11.20;35.70
77039;DHT22;65970;50.476;4.840;2024-03-23T13:41:29;11.20;35.50
77039;DHT22;65970;50.476;4.840;2024-03-23T13:46:29;11.20;35.10
77039;DHT22;65970;50.476;4.840;2024-03-23T13:51:30;11.20;34.60
77039;DHT22;65970;50.476;4.840;2024-03-23T13:56:31;11.30;35.40
77039;DHT22;65970;50.476;4.840;2024-03-23T14:01:31;11.30;35.70
77039;DHT22;65970;50.476;4.840;2024-03-23T14:06:32;11.40;35.40
77039;DHT22;65970;50.476;4.840;2024-03-23T14:11:32;11.40;34.80
77039;DHT22;65970;50.476;4.840;2024-03-23T14:16:33;11.40;35.30
77039;DHT22;65970;50.476;4.840;2024-03-23T14:21:33;11.40;35.60
77039;DHT22;65970;50.476;4.840;2024-03-23T14:26:34;11.50;35.20
77039;DHT22;65970;50.476;4.840;2024-03-23T14:31:35;11.50;35.20
77039;DHT22;65970;50.476;4.840;2024-03-23T14:36:35;11.50;34.60
77039;DHT22;65970;50.476;4.840;2024-03-23T14:41:36;11.50;33.60
77039;DHT22;65970;50.476;4.840;2024-03-23T14:46:36;11.50;32.60
77039;DHT22;65970;50.476;4.840;2024-03-23T14:51:37;11.50;33.30
77039;DHT22;65970;50.476;4.840;2024-03-23T14:56:37;11.40;33.40
77039;DHT22;65970;50.476;4.840;2024-03-23T15:01:38;11.30;33.90
77039;DHT22;65970;50.476;4.840;2024-03-23T15:06:38;11.30;32.30
77039;DHT22;65970;50.476;4.840;2024-03-23T15:11:39;11.30;32.10
77039;DHT22;65970;50.476;4.840;2024-03-23T15:16:39;11.30;32.50
77039;DHT22;65970;50.476;4.840;2024-03-23T15:21:40;11.20;32.30
77039;DHT22;65970;50.476;4.840;2024-03-23T15:26:43;11.20;32.30
77039;DHT22;65970;50.476;4.840;2024-03-23T15:31:44;11.10;33.20
77039;DHT22;65970;50.476;4.840;2024-03-23T15:36:44;11.10;31.40
77039;DHT22;65970;50.476;4.840;2024-03-23T15:41:48;11.10;32.20
77039;DHT22;65970;50.476;4.840;2024-03-23T15:46:48;11.10;32.40
77039;DHT22;65970;50.476;4.840;2024-03-23T15:51:49;11.10;32.40
77039;DHT22;65970;50.476;4.840;2024-03-23T15:56:50;11.10;32.30
77039;DHT22;65970;50.476;4.840;2024-03-23T16:01:50;11.10;32.10
77039;DHT22;65970;50.476;4.840;2024-03-23T16:06:51;11.10;31.50
77039;DHT22;65970;50.476;4.840;2024-03-23T16:11:51;11.10;31.10
77039;DHT22;65970;50.476;4.840;2024-03-23T16:16:52;11.00;31.90
77039;DHT22;65970;50.476;4.840;2024-03-23T16:21:52;11.00;31.10
77039;DHT22;65970;50.476;4.840;2024-03-23T16:26:53;11.00;31.80
77039;DHT22;65970;50.476;4.840;2024-03-23T16:31:53;11.00;32.10
77039;DHT22;65970;50.476;4.840;2024-03-23T16:36:54;11.00;31.70
77039;DHT22;65970;50.476;4.840;2024-03-23T16:41:54;11.00;32.10
77039;DHT22;65970;50.476;4.840;2024-03-23T16:46:55;10.90;32.10
77039;DHT22;65970;50.476;4.840;2024-03-23T16:51:55;10.90;32.60
77039;DHT22;65970;50.476;4.840;2024-03-23T16:56:56;10.90;31.70
77039;DHT22;65970;50.476;4.840;2024-03-23T17:01:57;10.90;32.40
77039;DHT22;65970;50.476;4.840;2024-03-23T17:06:57;10.90;32.50
77039;DHT22;65970;50.476;4.840;2024-03-23T17:11:58;10.90;32.60
77039;DHT22;65970;50.476;4.840;2024-03-23T17:16:58;10.90;32.00
77039;DHT22;65970;50.476;4.840;2024-03-23T17:21:59;10.80;31.40
77039;DHT22;65970;50.476;4.840;2024-03-23T17:26:59;10.80;31.50
77039;DHT22;65970;50.476;4.840;2024-03-23T17:32:00;10.80;31.60
77039;DHT22;65970;50.476;4.840;2024-03-23T17:37:00;10.80;31.60
77039;DHT22;65970;50.476;4.840;2024-03-23T17:42:01;10.70;32.30
77039;DHT22;65970;50.476;4.840;2024-03-23T17:47:01;10.70;31.70
77039;DHT22;65970;50.476;4.840;2024-03-23T17:52:09;10.70;30.90
77039;DHT22;65970;50.476;4.840;2024-03-23T17:57:10;10.70;31.50
77039;DHT22;65970;50.476;4.840;2024-03-23T18:02:10;10.60;31.70
77039;DHT22;65970;50.476;4.840;2024-03-23T18:07:11;10.60;32.00
77039;DHT22;65970;50.476;4.840;2024-03-23T18:12:12;10.60;32.50
77039;DHT22;65970;50.476;4.840;2024-03-23T18:17:12;10.60;33.00
77039;DHT22;65970;50.476;4.840;2024-03-23T18:22:13;10.50;32.40
77039;DHT22;65970;50.476;4.840;2024-03-23T18:27:13;10.50;31.40
77039;DHT22;65970;50.476;4.840;2024-03-23T18:32:14;10.40;31.20
77039;DHT22;65970;50.476;4.840;2024-03-23T18:37:15;10.40;32.20
77039;DHT22;65970;50.476;4.840;2024-03-23T18:42:15;10.40;32.20
77039;DHT22;65970;50.476;4.840;2024-03-23T18:47:16;10.40;32.30
77039;DHT22;65970;50.476;4.840;2024-03-23T18:52:16;10.30;32.10
77039;DHT22;65970;50.476;4.840;2024-03-23T18:57:17;10.30;32.00
77039;DHT22;65970;50.476;4.840;2024-03-23T19:02:17;10.30;32.10
77039;DHT22;65970;50.476;4.840;2024-03-23T19:07:18;10.20;31.50
77039;DHT22;65970;50.476;4.840;2024-03-23T19:12:18;10.20;32.20
77039;DHT22;65970;50.476;4.840;2024-03-23T19:17:19;10.10;31.70
77039;DHT22;65970;50.476;4.840;2024-03-23T19:22:19;10.10;32.10
77039;DHT22;65970;50.476;4.840;2024-03-23T19:27:20;10.10;31.70
77039;DHT22;65970;50.476;4.840;2024-03-23T19:32:21;10.00;31.50
77039;DHT22;65970;50.476;4.840;2024-03-23T19:37:21;10.00;31.00
77039;DHT22;65970;50.476;4.840;2024-03-23T19:42:22;9.90;31.70
77039;DHT22;65970;50.476;4.840;2024-03-23T19:47:23;9.90;32.00
77039;DHT22;65970;50.476;4.840;2024-03-23T19:52:24;9.90;32.20
77039;DHT22;65970;50.476;4.840;2024-03-23T19:57:24;9.80;31.70
77039;DHT22;65970;50.476;4.840;2024-03-23T20:02:25;9.80;32.40
77039;DHT22;65970;50.476;4.840;2024-03-23T20:07:26;9.70;31.70
77039;DHT22;65970;50.476;4.840;2024-03-23T20:12:27;9.70;31.80
77039;DHT22;65970;50.476;4.840;2024-03-23T20:17:27;9.70;31.00
77039;DHT22;65970;50.476;4.840;2024-03-23T20:22:28;9.60;32.20
77039;DHT22;65970;50.476;4.840;2024-03-23T20:27:28;9.60;32.50
77039;DHT22;65970;50.476;4.840;2024-03-23T20:32:29;9.50;32.30
77039;DHT22;65970;50.476;4.840;2024-03-23T20:37:29;9.50;32.00
77039;DHT22;65970;50.476;4.840;2024-03-23T20:42:30;9.40;32.60
77039;DHT22;65970;50.476;4.840;2024-03-23T20:47:30;9.50;32.60
77039;DHT22;65970;50.476;4.840;2024-03-23T20:52:31;9.40;32.70
77039;DHT22;65970;50.476;4.840;2024-03-23T20:57:32;9.40;32.30
77039;DHT22;65970;50.476;4.840;2024-03-23T21:02:32;9.30;32.20
77039;DHT22;65970;50.476;4.840;2024-03-23T21:07:33;9.30;32.20
77039;DHT22;65970;50.476;4.840;2024-03-23T21:12:33;9.30;32.60
77039;DHT22;65970;50.476;4.840;2024-03-23T21:17:34;9.30;32.40
77039;DHT22;65970;50.476;4.840;2024-03-23T21:22:34;9.20;32.40
77039;DHT22;65970;50.476;4.840;2024-03-23T21:27:35;9.20;32.80
77039;DHT22;65970;50.476;4.840;2024-03-23T21:32:35;9.10;32.90
77039;DHT22;65970;50.476;4.840;2024-03-23T21:37:36;9.10;32.50
77039;DHT22;65970;50.476;4.840;2024-03-23T21:42:36;9.10;32.50
77039;DHT22;65970;50.476;4.840;2024-03-23T21:47:37;9.10;32.50
77039;DHT22;65970;50.476;4.840;2024-03-23T21:52:38;9.00;32.80
77039;DHT22;65970;50.476;4.840;2024-03-23T21:57:38;9.00;32.70
77039;DHT22;65970;50.476;4.840;2024-03-23T22:02:39;9.00;32.80
77039;DHT22;65970;50.476;4.840;2024-03-23T22:07:39;8.90;32.50
77039;DHT22;65970;50.476;4.840;2024-03-23T22:12:40;8.90;32.60
77039;DHT22;65970;50.476;4.840;2024-03-23T22:17:40;8.90;32.70
77039;DHT22;65970;50.476;4.840;2024-03-23T22:22:41;8.90;33.20
77039;DHT22;65970;50.476;4.840;2024-03-23T22:27:41;8.80;33.00
77039;DHT22;65970;50.476;4.840;2024-03-23T22:32:45;8.80;33.20
77039;DHT22;65970;50.476;4.840;2024-03-23T22:37:46;8.80;33.10
77039;DHT22;65970;50.476;4.840;2024-03-23T22:42:46;8.80;33.20
77039;DHT22;65970;50.476;4.840;2024-03-23T22:47:47;8.70;33.10
77039;DHT22;65970;50.476;4.840;2024-03-23T22:52:48;8.70;33.10
77039;DHT22;65970;50.476;4.840;2024-03-23T22:57:48;8.70;33.20
77039;DHT22;65970;50.476;4.840;2024-03-23T23:02:49;8.70;33.20
77039;DHT22;65970;50.476;4.840;2024-03-23T23:07:49;8.60;33.30
77039;DHT22;65970;50.476;4.840;2024-03-23T23:12:50;8.60;33.10
77039;DHT22;65970;50.476;4.840;2024-03-23T23:17:52;8.60;33.20
77039;DHT22;65970;50.476;4.840;2024-03-23T23:22:53;8.60;33.20
77039;DHT22;65970;50.476;4.840;2024-03-23T23:27:53;8.60;33.50
77039;DHT22;65970;50.476;4.840;2024-03-23T23:32:54;8.50;33.30
77039;DHT22;65970;50.476;4.840;2024-03-23T23:37:54;8.50;33.50
77039;DHT22;65970;50.476;4.840;2024-03-23T23:42:55;8.50;33.60
77039;DHT22;65970;50.476;4.840;2024-03-23T23:47:55;8.50;33.50
77039;DHT22;65970;50.476;4.840;2024-03-23T23:52:56;8.50;33.40
77039;DHT22;65970;50.476;4.840;2024-03-23T23:57:56;8.50;33.40
